createdAt,value
2023-02-01T00:00:56.468Z,37.53
2023-02-01T00:01:56.394Z,37.50
2023-02-01T00:02:56.362Z,37.49
2023-02-01T00:03:57.226Z,37.47
2023-02-01T00:04:56.281Z,37.43
2023-02-01T00:05:56.207Z,37.42
2023-02-01T00:06:56.215Z,37.42
2023-02-01T00:07:56.113Z,37.41
2023-02-01T00:08:56.065Z,37.43
2023-02-01T00:09:56.066Z,37.43
2023-02-01T00:10:55.976Z,37.40
2023-02-01T00:11:55.989Z,37.41
2023-02-01T00:12:55.895Z,37.41
2023-02-01T00:13:55.859Z,37.40
2023-02-01T00:14:55.808Z,37.39
2023-02-01T00:15:55.789Z,37.37
2023-02-01T00:16:55.712Z,37.38
2023-02-01T00:17:55.670Z,37.36
2023-02-01T00:18:55.617Z,37.38
2023-02-01T00:19:55.570Z,37.35
2023-02-01T00:20:55.527Z,37.36
2023-02-01T00:21:55.481Z,37.34
2023-02-01T00:22:55.435Z,37.33
2023-02-01T00:23:55.457Z,37.33
2023-02-01T00:24:55.350Z,37.34
2023-02-01T00:25:55.316Z,37.35
2023-02-01T00:26:56.178Z,37.31
2023-02-01T00:27:55.208Z,37.32
2023-02-01T00:28:55.158Z,37.31
2023-02-01T00:29:55.123Z,37.27
2023-02-01T00:30:55.132Z,37.27
2023-02-01T00:31:55.081Z,37.26
2023-02-01T00:32:55.054Z,37.24
2023-02-01T00:33:54.932Z,37.25
2023-02-01T00:34:54.891Z,37.25
2023-02-01T00:35:54.854Z,37.24
2023-02-01T00:36:54.801Z,37.26
2023-02-01T00:37:54.759Z,37.24
2023-02-01T00:38:54.718Z,37.21
2023-02-01T00:39:54.737Z,37.22
2023-02-01T00:40:54.631Z,37.20
2023-02-01T00:41:54.595Z,37.20
2023-02-01T00:42:54.539Z,37.20
2023-02-01T00:43:54.496Z,37.19
2023-02-01T00:44:54.467Z,37.19
2023-02-01T00:45:54.462Z,37.18
2023-02-01T00:46:54.411Z,37.18
2023-02-01T00:47:54.311Z,37.20
2023-02-01T00:48:55.146Z,37.17
2023-02-01T00:49:54.235Z,37.16
2023-02-01T00:50:54.186Z,37.15
2023-02-01T00:51:54.167Z,37.15
2023-02-01T00:52:54.094Z,37.13
2023-02-01T00:53:54.049Z,37.10
2023-02-01T00:54:54.001Z,37.13
2023-02-01T00:55:53.962Z,37.11
2023-02-01T00:56:53.929Z,37.10
2023-02-01T00:57:53.891Z,37.08
2023-02-01T00:58:53.845Z,37.08
2023-02-01T00:59:53.796Z,37.08
2023-02-01T01:00:53.761Z,37.09
2023-02-01T01:10:53.397Z,37.00
2023-02-01T01:11:53.309Z,36.99
2023-02-01T01:12:53.270Z,36.98
2023-02-01T01:13:53.232Z,36.99
2023-02-01T01:14:53.183Z,36.95
2023-02-01T01:15:53.240Z,36.93
2023-02-01T01:16:53.095Z,36.92
2023-02-01T01:17:53.041Z,36.92
2023-02-01T01:18:53.002Z,36.91
2023-02-01T01:19:52.960Z,36.88
2023-02-01T01:20:52.922Z,36.89
2023-02-01T01:21:52.882Z,36.88
2023-02-01T01:22:52.847Z,36.89
2023-02-01T01:23:52.798Z,36.86
2023-02-01T01:24:52.836Z,36.83
2023-02-01T01:25:52.730Z,36.82
2023-02-01T01:26:52.750Z,36.81
2023-02-01T01:27:52.640Z,36.79
2023-02-01T01:28:52.600Z,36.77
2023-02-01T01:29:52.553Z,36.75
2023-02-01T01:30:52.592Z,36.75
2023-02-01T01:31:52.575Z,36.75
2023-02-01T01:32:52.456Z,36.71
2023-02-01T01:33:52.385Z,36.70
2023-02-01T01:34:52.345Z,36.71
2023-02-01T01:35:52.308Z,36.69
2023-02-01T01:36:52.529Z,36.67
2023-02-01T01:37:52.233Z,36.67
2023-02-01T01:38:52.215Z,36.69
2023-02-01T01:39:52.170Z,36.63
2023-02-01T01:40:52.672Z,36.64
2023-02-01T01:41:52.095Z,36.62
2023-02-01T01:42:52.058Z,36.62
2023-02-01T01:43:52.022Z,36.61
2023-02-01T01:44:51.977Z,36.61
2023-02-01T01:50:51.748Z,36.50
2023-02-01T01:51:51.724Z,36.47
2023-02-01T01:52:51.685Z,36.45
2023-02-01T01:53:51.649Z,36.46
2023-02-01T01:54:51.602Z,36.42
2023-02-01T01:55:51.573Z,36.43
2023-02-01T01:56:51.551Z,36.42
2023-02-01T01:57:51.498Z,36.38
2023-02-01T01:58:51.451Z,36.39
2023-02-01T02:07:51.159Z,36.32
2023-02-01T03:05:48.915Z,35.33
2023-02-01T03:22:48.751Z,35.11
2023-02-01T04:17:48.407Z,34.37
2023-02-01T04:22:48.373Z,34.32
2023-02-01T04:23:48.354Z,34.31
2023-02-01T04:24:48.361Z,34.29
2023-02-01T04:25:48.320Z,34.28
2023-02-01T04:26:48.415Z,34.27
2023-02-01T04:27:48.296Z,34.25
2023-02-01T04:28:48.279Z,34.23
2023-02-01T04:29:48.274Z,34.24
2023-02-01T04:30:48.366Z,34.23
2023-02-01T04:31:48.387Z,34.21
2023-02-01T04:32:48.240Z,34.21
2023-02-01T04:33:48.232Z,34.20
2023-02-01T04:37:48.210Z,34.14
2023-02-01T04:47:48.080Z,34.02
2023-02-01T04:49:48.060Z,33.99
2023-02-01T04:50:48.048Z,33.96
2023-02-01T04:51:48.043Z,33.95
2023-02-01T04:53:48.012Z,33.92
2023-02-01T04:54:48.013Z,33.92
2023-02-01T04:55:47.992Z,33.90
2023-02-01T04:56:47.985Z,33.88
2023-02-01T04:57:47.968Z,33.84
2023-02-01T04:58:47.957Z,33.84
2023-02-01T04:59:47.964Z,33.85
2023-02-01T05:00:47.959Z,33.87
2023-02-01T05:01:48.971Z,33.85
2023-02-01T05:02:47.925Z,33.83
2023-02-01T05:03:47.905Z,33.81
2023-02-01T05:04:48.003Z,33.84
2023-02-01T05:05:48.748Z,33.80
2023-02-01T05:06:47.873Z,33.80
2023-02-01T05:07:47.873Z,33.79
2023-02-01T05:08:47.856Z,33.80
2023-02-01T05:09:47.839Z,33.78
2023-02-01T05:10:47.854Z,33.80
2023-02-01T05:11:47.857Z,33.78
2023-02-01T05:12:47.841Z,33.74
2023-02-01T05:13:47.817Z,33.73
2023-02-01T05:14:47.813Z,33.71
2023-02-01T05:15:47.865Z,33.73
2023-02-01T05:16:47.779Z,33.70
2023-02-01T05:18:47.744Z,33.67
2023-02-01T05:19:47.781Z,33.66
2023-02-01T05:27:48.250Z,33.57
2023-02-01T05:32:48.248Z,33.53
2023-02-01T05:33:48.250Z,33.54
2023-02-01T05:48:47.300Z,33.47
2023-02-01T05:58:47.135Z,33.41
2023-02-01T05:59:47.128Z,33.40
2023-02-01T06:00:47.127Z,33.37
2023-02-01T06:01:47.264Z,33.40
2023-02-01T06:02:47.203Z,33.39
2023-02-01T06:03:47.199Z,33.40
2023-02-01T06:04:47.053Z,33.38
2023-02-01T06:05:47.026Z,33.40
2023-02-01T06:06:47.039Z,33.36
2023-02-01T06:07:47.000Z,33.39
2023-02-01T06:08:46.991Z,33.38
2023-02-01T06:09:46.978Z,33.36
2023-02-01T06:10:46.938Z,33.39
2023-02-01T06:11:46.996Z,33.35
2023-02-01T06:12:46.923Z,33.38
2023-02-01T06:13:46.892Z,33.35
2023-02-01T06:14:46.871Z,33.36
2023-02-01T06:15:46.981Z,33.37
2023-02-01T06:16:46.893Z,33.33
2023-02-01T06:17:47.768Z,33.34
2023-02-01T06:18:47.769Z,33.35
2023-02-01T06:19:46.807Z,33.35
2023-02-01T06:20:46.772Z,33.34
2023-02-01T06:21:46.754Z,33.33
2023-02-01T06:22:46.740Z,33.30
2023-02-01T06:23:46.731Z,33.36
2023-02-01T06:24:46.716Z,33.49
2023-02-01T06:25:46.742Z,33.61
2023-02-01T06:26:46.761Z,33.86
2023-02-01T06:27:46.682Z,33.72
2023-02-01T06:28:46.667Z,33.98
2023-02-01T06:29:46.636Z,34.27
2023-02-01T06:30:46.632Z,34.53
2023-02-01T06:31:46.645Z,34.57
2023-02-01T06:32:46.552Z,34.74
2023-02-01T06:33:46.508Z,35.00
2023-02-01T06:34:46.465Z,35.21
2023-02-01T06:35:46.423Z,35.40
2023-02-01T06:36:46.370Z,35.58
2023-02-01T06:37:46.291Z,35.65
2023-02-01T06:38:46.763Z,35.78
2023-02-01T06:39:46.163Z,36.07
2023-02-01T06:40:46.103Z,36.14
2023-02-01T06:41:46.057Z,36.24
2023-02-01T06:42:45.983Z,36.41
2023-02-01T06:43:45.933Z,36.59
2023-02-01T06:44:45.947Z,36.76
2023-02-01T06:45:45.797Z,36.84
2023-02-01T06:46:45.780Z,37.02
2023-02-01T06:47:45.681Z,37.18
2023-02-01T06:48:45.600Z,37.31
2023-02-01T06:49:45.529Z,37.42
2023-02-01T06:50:45.457Z,37.60
2023-02-01T06:51:45.390Z,38.03
2023-02-01T06:52:45.327Z,38.06
2023-02-01T06:53:45.262Z,38.15
2023-02-01T06:54:45.191Z,38.21
2023-02-01T06:55:45.116Z,38.30
2023-02-01T06:56:45.066Z,38.40
2023-02-01T06:57:44.962Z,38.52
2023-02-01T06:58:44.884Z,38.61
2023-02-01T06:59:44.796Z,38.91
2023-02-01T07:00:44.780Z,38.86
2023-02-01T07:01:44.779Z,39.11
2023-02-01T07:02:44.607Z,39.25
2023-02-01T07:03:44.537Z,39.28
2023-02-01T07:04:44.444Z,39.58
2023-02-01T07:05:44.465Z,39.54
2023-02-01T07:06:44.297Z,39.68
2023-02-01T07:07:44.214Z,39.84
2023-02-01T07:08:44.143Z,39.99
2023-02-01T07:09:44.031Z,40.10
2023-02-01T07:10:43.966Z,40.22
2023-02-01T07:11:43.888Z,40.35
2023-02-01T07:12:43.799Z,40.37
2023-02-01T07:13:43.735Z,40.52
2023-02-01T07:14:43.661Z,40.65
2023-02-01T07:15:43.618Z,40.79
2023-02-01T07:16:44.278Z,40.92
2023-02-01T07:27:43.775Z,41.61
2023-02-01T08:11:40.747Z,41.92
2023-02-01T08:12:40.728Z,42.03
2023-02-01T08:13:40.683Z,42.37
2023-02-01T08:14:40.646Z,42.43
2023-02-01T08:15:41.370Z,42.89
2023-02-01T08:16:40.699Z,42.69
2023-02-01T08:17:40.580Z,42.59
2023-02-01T08:18:40.605Z,42.49
2023-02-01T08:19:40.557Z,42.36
2023-02-01T08:20:40.514Z,42.25
2023-02-01T08:21:40.479Z,42.16
2023-02-01T08:22:40.437Z,42.11
2023-02-01T08:23:40.402Z,42.04
2023-02-01T08:24:40.366Z,41.98
2023-02-01T08:25:40.348Z,41.97
2023-02-01T08:26:40.290Z,41.92
2023-02-01T08:27:40.165Z,41.80
2023-02-01T08:28:40.090Z,41.84
2023-02-01T08:29:40.043Z,41.78
2023-02-01T08:30:39.987Z,41.82
2023-02-01T08:31:39.917Z,41.79
2023-02-01T08:32:39.803Z,41.79
2023-02-01T08:33:39.750Z,41.76
2023-02-01T08:34:39.753Z,41.80
2023-02-01T08:35:43.638Z,41.81
2023-02-01T08:36:39.555Z,41.83
2023-02-01T08:37:39.431Z,41.86
2023-02-01T08:38:39.411Z,41.80
2023-02-01T08:39:39.319Z,41.83
2023-02-01T08:40:39.176Z,41.87
2023-02-01T08:41:39.105Z,41.88
2023-02-01T08:42:39.011Z,41.83
2023-02-01T08:43:38.922Z,41.85
2023-02-01T08:44:38.901Z,41.85
2023-02-01T08:45:38.873Z,41.81
2023-02-01T08:46:38.709Z,41.66
2023-02-01T08:47:38.600Z,41.76
2023-02-01T08:48:38.520Z,41.72
2023-02-01T08:49:38.436Z,41.71
2023-02-01T08:50:38.357Z,41.75
2023-02-01T08:51:38.279Z,41.69
2023-02-01T08:52:38.420Z,41.66
2023-02-01T08:53:38.130Z,41.61
2023-02-01T08:54:38.052Z,41.54
2023-02-01T08:55:37.967Z,41.51
2023-02-01T08:56:37.957Z,41.48
2023-02-01T08:57:37.804Z,41.44
2023-02-01T08:58:37.737Z,41.41
2023-02-01T08:59:37.671Z,41.38
2023-02-01T09:00:37.583Z,41.23
2023-02-01T09:01:37.533Z,41.25
2023-02-01T09:02:37.458Z,41.25
2023-02-01T09:03:37.404Z,41.23
2023-02-01T09:04:37.264Z,41.17
2023-02-01T09:05:48.832Z,41.17
2023-02-01T09:06:38.103Z,41.16
2023-02-01T09:07:37.039Z,41.08
2023-02-01T09:08:36.961Z,41.01
2023-02-01T09:09:36.877Z,40.99
2023-02-01T09:10:37.359Z,40.92
2023-02-01T09:11:36.727Z,40.85
2023-02-01T09:12:36.640Z,40.84
2023-02-01T09:13:36.566Z,40.81
2023-02-01T09:14:36.583Z,40.73
2023-02-01T09:15:36.482Z,40.49
2023-02-01T09:16:36.326Z,40.59
2023-02-01T09:17:36.266Z,40.61
2023-02-01T09:18:36.167Z,40.55
2023-02-01T09:19:36.089Z,40.55
2023-02-01T09:28:35.529Z,40.02
2023-02-01T09:30:35.518Z,39.99
2023-02-01T09:32:35.469Z,39.86
2023-02-01T09:33:35.318Z,39.78
2023-02-01T09:34:35.253Z,39.70
2023-02-01T09:35:35.296Z,39.73
2023-02-01T09:36:35.152Z,39.71
2023-02-01T09:37:35.113Z,39.64
2023-02-01T09:38:38.905Z,39.65
2023-02-01T09:39:35.987Z,39.60
2023-02-01T09:40:34.911Z,39.52
2023-02-01T09:41:34.858Z,39.46
2023-02-01T09:42:34.745Z,39.41
2023-02-01T09:43:34.675Z,39.34
2023-02-01T09:44:43.207Z,39.33
2023-02-01T09:45:35.528Z,39.25
2023-02-01T09:46:34.628Z,39.22
2023-02-01T09:47:34.372Z,39.15
2023-02-01T09:48:34.292Z,39.10
2023-02-01T09:49:34.217Z,39.06
2023-02-01T09:50:34.149Z,39.02
2023-02-01T09:51:34.071Z,38.99
2023-02-01T09:52:33.991Z,38.99
2023-02-01T09:53:33.926Z,38.95
2023-02-01T09:54:33.863Z,38.92
2023-02-01T09:55:33.793Z,38.84
2023-02-01T09:56:33.725Z,38.80
2023-02-01T09:57:34.640Z,38.80
2023-02-01T10:02:35.911Z,38.42
2023-02-01T10:11:33.863Z,38.09
2023-02-01T10:25:32.445Z,37.71
2023-02-01T10:26:32.513Z,37.59
2023-02-01T10:27:32.357Z,37.64
2023-02-01T10:28:32.317Z,37.63
2023-02-01T10:29:32.269Z,37.65
2023-02-01T10:30:34.664Z,37.57
2023-02-01T10:31:32.221Z,37.61
2023-02-01T10:32:32.086Z,37.56
2023-02-01T10:33:31.993Z,37.55
2023-02-01T10:34:32.858Z,37.54
2023-02-01T10:35:32.351Z,37.54
2023-02-01T10:36:31.808Z,37.50
2023-02-01T10:37:32.295Z,37.47
2023-02-01T10:38:31.734Z,37.46
2023-02-01T10:39:31.596Z,37.43
2023-02-01T10:40:31.495Z,37.42
2023-02-01T10:41:31.414Z,37.39
2023-02-01T10:42:31.348Z,37.35
2023-02-01T10:43:31.259Z,37.29
2023-02-01T10:44:31.194Z,37.28
2023-02-01T10:45:31.267Z,37.24
2023-02-01T10:46:31.106Z,37.17
2023-02-01T10:47:30.983Z,37.14
2023-02-01T10:48:31.250Z,37.10
2023-02-01T10:49:30.835Z,37.05
2023-02-01T10:50:30.813Z,37.04
2023-02-01T10:51:30.689Z,37.02
2023-02-01T10:52:30.618Z,37.01
2023-02-01T10:53:30.570Z,36.96
2023-02-01T10:54:30.927Z,36.94
2023-02-01T10:55:30.410Z,36.90
2023-02-01T10:56:30.344Z,36.87
2023-02-01T10:57:30.265Z,36.85
2023-02-01T10:58:30.248Z,36.84
2023-02-01T10:59:30.139Z,36.78
2023-02-01T11:00:30.075Z,36.78
2023-02-01T11:01:30.089Z,36.76
2023-02-01T11:02:29.953Z,36.69
2023-02-01T11:03:30.357Z,36.67
2023-02-01T11:04:29.773Z,36.64
2023-02-01T11:05:29.704Z,36.60
2023-02-01T11:06:29.638Z,36.57
2023-02-01T11:07:29.558Z,36.54
2023-02-01T11:08:29.478Z,36.50
2023-02-01T11:09:29.404Z,36.48
2023-02-01T11:10:29.330Z,36.37
2023-02-01T11:11:29.254Z,36.38
2023-02-01T11:12:29.867Z,36.39
2023-02-01T11:13:29.114Z,36.35
2023-02-01T11:14:29.039Z,36.32
2023-02-01T11:15:28.970Z,36.31
2023-02-01T11:16:28.941Z,36.25
2023-02-01T11:17:28.831Z,36.23
2023-02-01T11:18:28.750Z,36.20
2023-02-01T11:19:28.666Z,36.16
2023-02-01T11:20:28.610Z,36.12
2023-02-01T11:21:28.530Z,36.09
2023-02-01T11:22:28.446Z,36.03
2023-02-01T11:23:28.380Z,35.95
2023-02-01T11:24:28.306Z,35.91
2023-02-01T11:25:28.232Z,35.87
2023-02-01T11:26:28.178Z,35.83
2023-02-01T11:27:28.259Z,35.79
2023-02-01T11:28:28.119Z,35.75
2023-02-01T11:29:27.983Z,35.73
2023-02-01T11:30:27.963Z,35.69
2023-02-01T11:31:27.927Z,35.64
2023-02-01T11:32:27.813Z,35.61
2023-02-01T11:33:27.757Z,35.64
2023-02-01T11:34:27.708Z,35.59
2023-02-01T11:35:27.657Z,35.56
2023-02-01T11:36:27.647Z,35.51
2023-02-01T11:37:27.535Z,35.49
2023-02-01T11:38:27.479Z,35.43
2023-02-01T11:39:27.423Z,35.36
2023-02-01T11:40:27.380Z,35.42
2023-02-01T11:41:27.303Z,35.50
2023-02-01T11:42:27.247Z,35.50
2023-02-01T11:43:27.862Z,35.47
2023-02-01T11:44:27.118Z,35.40
2023-02-01T11:45:27.051Z,35.30
2023-02-01T11:46:27.027Z,35.23
2023-02-01T11:47:26.906Z,35.17
2023-02-01T11:48:27.574Z,35.12
2023-02-01T11:49:26.779Z,35.04
2023-02-01T11:50:26.884Z,34.96
2023-02-01T11:51:26.691Z,34.88
2023-02-01T11:52:27.443Z,34.88
2023-02-01T11:53:26.648Z,34.80
2023-02-01T11:54:26.531Z,34.76
2023-02-01T11:55:26.493Z,34.72
2023-02-01T11:56:26.492Z,34.74
2023-02-01T11:57:26.443Z,34.66
2023-02-01T11:58:26.434Z,34.62
2023-02-01T11:59:26.322Z,34.54
2023-02-01T12:00:26.397Z,34.50
2023-02-01T12:01:26.231Z,34.42
2023-02-01T12:02:26.161Z,34.47
2023-02-01T12:03:26.138Z,34.46
2023-02-01T12:04:26.061Z,34.49
2023-02-01T12:05:25.975Z,34.39
2023-02-01T12:06:25.921Z,34.45
2023-02-01T12:07:25.843Z,34.35
2023-02-01T12:08:25.771Z,34.33
2023-02-01T12:09:25.687Z,34.34
2023-02-01T12:10:26.004Z,34.28
2023-02-01T12:11:25.562Z,34.04
2023-02-01T12:12:25.504Z,34.09
2023-02-01T12:13:25.492Z,34.14
2023-02-01T12:14:25.472Z,34.09
2023-02-01T12:15:25.292Z,34.14
2023-02-01T12:16:25.554Z,34.05
2023-02-01T12:17:25.239Z,34.07
2023-02-01T12:18:25.077Z,34.05
2023-02-01T12:19:25.157Z,33.99
2023-02-01T12:20:25.362Z,33.98
2023-02-01T12:21:24.899Z,33.92
2023-02-01T12:22:24.824Z,33.86
2023-02-01T12:23:24.753Z,33.71
2023-02-01T12:24:24.679Z,33.78
2023-02-01T12:25:24.611Z,33.80
2023-02-01T12:26:24.616Z,33.83
2023-02-01T12:27:24.484Z,33.79
2023-02-01T12:28:25.440Z,33.78
2023-02-01T12:29:24.358Z,33.73
2023-02-01T12:30:24.651Z,33.67
2023-02-01T12:31:24.257Z,33.65
2023-02-01T12:32:24.169Z,33.63
2023-02-01T12:33:24.116Z,33.62
2023-02-01T12:34:24.037Z,33.64
2023-02-01T12:35:23.975Z,33.57
2023-02-01T12:36:23.936Z,33.54
2023-02-01T12:37:23.868Z,33.50
2023-02-01T12:38:23.803Z,33.51
2023-02-01T12:39:23.737Z,33.51
2023-02-01T12:40:23.997Z,33.53
2023-02-01T12:41:23.617Z,33.50
2023-02-01T12:50:24.136Z,33.22
2023-02-01T15:22:15.431Z,31.76
2023-02-01T15:45:15.212Z,31.70
2023-02-01T15:46:15.217Z,31.72
2023-02-01T15:47:15.200Z,31.74
2023-02-01T15:48:15.198Z,31.77
2023-02-01T15:49:15.184Z,31.76
2023-02-01T15:50:15.198Z,31.74
2023-02-01T15:51:15.175Z,31.74
2023-02-01T15:52:15.155Z,31.72
2023-02-01T15:53:15.136Z,31.72
2023-02-01T15:54:15.153Z,31.74
2023-02-01T15:56:15.104Z,31.72
2023-02-01T15:57:15.088Z,31.73
2023-02-01T15:58:15.097Z,31.73
2023-02-01T15:59:15.107Z,31.73
2023-02-01T16:00:15.100Z,31.72
2023-02-01T16:01:15.087Z,31.73
2023-02-01T16:02:15.099Z,31.71
2023-02-01T16:03:15.117Z,31.71
2023-02-01T16:04:15.092Z,31.71
2023-02-01T16:05:15.097Z,31.73
2023-02-01T16:06:15.097Z,31.71
2023-02-01T16:07:15.078Z,31.76
2023-02-01T16:08:15.084Z,31.74
2023-02-01T16:09:15.082Z,31.72
2023-02-01T16:10:15.082Z,31.71
2023-02-01T16:11:15.051Z,31.74
2023-02-01T16:12:15.047Z,31.71
2023-02-01T16:13:15.041Z,31.68
2023-02-01T16:14:15.010Z,31.72
2023-02-01T16:15:14.994Z,31.70
2023-02-01T16:16:15.124Z,31.71
2023-02-01T16:17:15.015Z,31.73
2023-02-01T16:18:17.688Z,31.71
2023-02-01T16:19:14.857Z,31.66
2023-02-01T16:20:14.797Z,31.64
2023-02-01T16:21:14.742Z,31.66
2023-02-01T16:22:14.695Z,31.67
2023-02-01T16:23:14.605Z,31.67
2023-02-01T16:24:14.620Z,31.67
2023-02-01T16:25:14.477Z,31.69
2023-02-01T16:26:14.414Z,31.63
2023-02-01T16:27:14.352Z,31.64
2023-02-01T16:28:14.295Z,31.64
2023-02-01T16:29:14.212Z,31.62
2023-02-01T16:30:14.149Z,31.61
2023-02-01T16:31:14.227Z,31.62
2023-02-01T16:32:14.027Z,31.62
2023-02-01T16:33:14.021Z,31.61
2023-02-01T16:34:13.897Z,31.63
2023-02-01T16:35:13.837Z,31.62
2023-02-01T16:36:13.774Z,31.58
2023-02-01T16:37:13.709Z,31.58
2023-02-01T16:38:13.702Z,31.64
2023-02-01T17:51:09.136Z,31.59
2023-02-01T17:52:09.085Z,31.61
2023-02-01T17:53:09.023Z,31.63
2023-02-01T17:54:08.964Z,31.62
2023-02-01T17:55:08.914Z,31.65
2023-02-01T17:56:08.854Z,31.68
2023-02-01T17:57:08.800Z,31.67
2023-02-01T17:58:08.764Z,31.66
2023-02-01T17:59:08.701Z,31.66
2023-02-01T18:00:08.651Z,31.65
2023-02-01T18:02:08.582Z,31.66
2023-02-01T18:03:08.505Z,31.65
2023-02-01T18:04:08.528Z,31.65
2023-02-01T18:14:07.916Z,31.87
2023-02-01T18:15:07.853Z,31.86
2023-02-01T18:16:07.802Z,31.82
2023-02-01T18:17:07.822Z,31.83
2023-02-01T18:18:07.797Z,31.85
2023-02-01T18:19:07.672Z,31.84
2023-02-01T18:20:07.665Z,31.85
2023-02-01T18:21:07.554Z,31.83
2023-02-01T18:22:07.505Z,31.83
2023-02-01T18:23:07.457Z,31.83
2023-02-01T18:24:07.996Z,31.85
2023-02-01T18:25:07.341Z,31.86
2023-02-01T18:26:07.280Z,31.87
2023-02-01T18:27:08.058Z,31.86
2023-02-01T18:28:07.188Z,31.90
2023-02-01T18:29:07.136Z,31.90
2023-02-01T18:30:07.061Z,31.92
2023-02-01T18:31:07.159Z,31.88
2023-02-01T18:32:06.968Z,31.90
2023-02-01T18:33:06.928Z,31.91
2023-02-01T18:34:06.852Z,31.92
2023-02-01T18:35:06.808Z,31.95
2023-02-01T18:36:06.761Z,31.92
2023-02-01T18:37:06.712Z,31.92
2023-02-01T18:38:06.659Z,31.91
2023-02-01T18:39:06.604Z,31.91
2023-02-01T18:40:06.545Z,31.96
2023-02-01T18:41:06.484Z,31.94
2023-02-01T18:42:06.431Z,31.94
2023-02-01T18:43:06.389Z,31.94
2023-02-01T18:44:06.306Z,31.94
2023-02-01T18:45:06.333Z,31.96
2023-02-01T18:46:06.255Z,31.96
2023-02-01T18:47:06.167Z,31.96
2023-02-01T18:48:06.098Z,31.95
2023-02-01T18:49:06.048Z,31.96
2023-02-01T18:50:05.991Z,31.96
2023-02-01T18:51:05.928Z,31.98
2023-02-01T18:52:05.877Z,31.99
2023-02-01T18:53:05.830Z,31.96
2023-02-01T18:54:05.765Z,31.96
2023-02-01T18:55:05.740Z,32.02
2023-02-01T18:56:05.660Z,32.01
2023-02-01T18:57:05.614Z,32.00
2023-02-01T18:58:05.568Z,31.97
2023-02-01T18:59:05.516Z,32.02
2023-02-01T19:00:05.476Z,32.02
2023-02-01T19:01:05.452Z,32.03
2023-02-01T19:02:05.364Z,32.03
2023-02-01T19:03:05.305Z,32.04
2023-02-01T19:04:09.126Z,32.03
2023-02-01T19:05:06.192Z,32.05
2023-02-01T19:06:05.111Z,32.05
2023-02-01T19:07:05.059Z,32.03
2023-02-01T19:08:05.056Z,32.06
2023-02-01T19:09:04.925Z,32.03
2023-02-01T19:10:04.888Z,32.02
2023-02-01T19:11:04.798Z,32.03
2023-02-01T19:12:05.092Z,32.05
2023-02-01T19:13:04.671Z,32.03
2023-02-01T19:14:04.603Z,32.04
2023-02-01T19:15:04.539Z,32.03
2023-02-01T19:16:04.512Z,32.04
2023-02-01T19:17:04.426Z,32.05
2023-02-01T19:18:04.352Z,32.07
2023-02-01T19:19:04.264Z,32.09
2023-02-01T19:20:04.205Z,32.09
2023-02-01T19:21:04.209Z,32.08
2023-02-01T19:22:04.539Z,32.09
2023-02-01T19:23:04.521Z,32.12
2023-02-01T19:24:03.967Z,32.08
2023-02-01T19:25:03.882Z,32.09
2023-02-01T19:26:03.810Z,32.11
2023-02-01T19:27:03.755Z,32.11
2023-02-01T19:28:03.687Z,32.09
2023-02-01T19:29:03.630Z,32.12
2023-02-01T20:09:00.738Z,32.31
2023-02-01T20:10:00.651Z,32.31
2023-02-01T20:11:00.582Z,32.32
2023-02-01T20:12:00.533Z,32.32
2023-02-01T20:13:00.493Z,32.35
2023-02-01T20:14:00.442Z,32.36
2023-02-01T20:15:00.409Z,32.33
2023-02-01T20:16:00.375Z,32.35
2023-02-01T20:17:00.381Z,32.37
2023-02-01T20:18:00.241Z,32.35
2023-02-01T20:19:00.192Z,32.35
2023-02-01T20:20:00.152Z,32.37
2023-02-01T20:21:00.097Z,32.38
2023-02-01T20:22:00.050Z,32.33
2023-02-01T20:22:59.998Z,32.36
2023-02-01T20:23:59.948Z,32.35
2023-02-01T20:24:59.906Z,32.37
2023-02-01T20:26:00.767Z,32.36
2023-02-01T20:27:00.665Z,32.38
2023-02-01T20:28:00.625Z,32.37
2023-02-01T20:29:00.575Z,32.36
2023-02-01T20:30:00.548Z,32.37
2023-02-01T20:31:00.590Z,32.37
2023-02-01T20:32:00.440Z,32.37
2023-02-01T20:33:00.387Z,32.38
2023-02-01T20:34:00.342Z,32.39
2023-02-01T20:35:00.295Z,32.38
2023-02-01T20:36:00.243Z,32.42
2023-02-01T20:37:00.201Z,32.42
2023-02-01T20:38:00.139Z,32.39
2023-02-01T20:39:00.122Z,32.43
2023-02-01T20:40:00.052Z,32.43
2023-02-01T20:41:00.002Z,32.44
2023-02-01T20:42:00.079Z,32.45
2023-02-01T20:43:00.078Z,32.46
2023-02-01T20:43:59.862Z,32.44
2023-02-01T20:44:59.823Z,32.45
2023-02-01T20:45:59.776Z,32.47
2023-02-01T20:46:59.747Z,32.45
2023-02-01T21:07:58.787Z,32.56
2023-02-01T21:08:58.752Z,32.56
2023-02-01T21:09:58.676Z,32.56
2023-02-01T21:10:58.702Z,32.58
2023-02-01T21:11:58.596Z,32.61
2023-02-01T21:13:05.061Z,32.60
2023-02-01T21:13:59.485Z,32.59
2023-02-01T21:14:58.421Z,32.61
2023-02-01T21:15:58.438Z,32.60
2023-02-01T21:16:58.281Z,32.62
2023-02-01T21:17:58.229Z,32.63
2023-02-01T21:18:58.161Z,32.62
2023-02-01T21:19:58.140Z,32.61
2023-02-01T21:20:58.026Z,32.62
2023-02-01T21:21:57.944Z,32.64
2023-02-01T21:22:57.872Z,32.62
2023-02-01T21:23:57.811Z,32.62
2023-02-01T21:24:57.740Z,32.66
2023-02-01T21:25:57.682Z,32.66
2023-02-01T21:26:57.666Z,32.66
2023-02-01T21:27:57.538Z,32.66
2023-02-01T21:28:57.478Z,32.65
2023-02-01T21:29:57.408Z,32.64
2023-02-01T22:10:55.447Z,32.81
2023-02-01T22:11:55.359Z,32.81
2023-02-01T22:12:55.326Z,32.83
2023-02-01T22:13:55.288Z,32.85
2023-02-01T22:14:55.239Z,32.80
2023-02-01T22:15:55.198Z,32.82
2023-02-01T22:16:55.630Z,32.82
2023-02-01T22:17:55.116Z,32.85
2023-02-01T22:18:55.088Z,32.81
2023-02-01T22:19:55.044Z,32.83
2023-02-01T22:20:54.995Z,32.82
2023-02-01T22:21:54.959Z,32.85
2023-02-01T22:22:54.928Z,32.86
2023-02-01T22:23:54.877Z,32.84
2023-02-01T22:24:54.833Z,32.86
2023-02-01T22:25:54.782Z,32.87
2023-02-01T22:26:54.811Z,32.88
2023-02-01T22:28:32.723Z,32.88
2023-02-01T22:28:55.668Z,32.87
2023-02-01T22:29:54.586Z,32.90
2023-02-01T22:30:54.592Z,32.89
2023-02-01T22:31:54.523Z,32.90
